Time;durP1;ratioP1;P1;durP2;ratioP2;P2;SDS_P1;SDS_P2;PMS_P1;PMS_P2;Temp;Humidity;BMP_temperature;BMP_pressure;BME280_temperature;BME280_humidity;BME280_pressure;Samples;Min_cycle;Max_cycle;Signal;HPM_P1;HPM_P2
2023/11/30 00:00:56;;;;;;;14.35;9.73;;;;;;;25.01;33.34;99182.16;4346970;33;34761;-61
2023/11/30 00:03:24;;;;;;;13.98;10.02;;;;;;;24.99;33.35;99191.66;4347122;33;33575;-61
2023/11/30 00:05:51;;;;;;;15.57;10.02;;;;;;;24.98;33.42;99185.37;4347032;33;34477;-60
2023/11/30 00:08:19;;;;;;;14.43;9.85;;;;;;;24.96;33.45;99178.53;4347063;33;34510;-61
2023/11/30 00:10:47;;;;;;;13.82;9.57;;;;;;;24.94;33.55;99176.03;4347097;33;34207;-61
2023/11/30 00:13:14;;;;;;;14.27;9.73;;;;;;;24.92;33.49;99176.31;4347125;33;34557;-60
2023/11/30 00:15:41;;;;;;;14.23;9.70;;;;;;;24.92;33.59;99172.75;4346673;33;34665;-61
2023/11/30 00:18:13;;;;;;;15.65;9.60;;;;;;;24.91;33.63;99176.56;4346714;33;34945;-60
2023/11/30 00:20:40;;;;;;;16.95;9.88;;;;;;;24.89;33.60;99157.69;4346853;33;33750;-60
2023/11/30 00:23:08;;;;;;;13.90;9.68;;;;;;;24.88;33.78;99166.12;4346839;33;33799;-60
2023/11/30 00:25:36;;;;;;;16.05;9.27;;;;;;;24.87;33.91;99172.69;4346789;33;34027;-61
2023/11/30 00:28:04;;;;;;;14.85;9.82;;;;;;;24.86;33.88;99177.31;4346806;33;33038;-60
2023/11/30 00:30:31;;;;;;;13.98;9.65;;;;;;;24.83;33.92;99175.06;4346758;33;33728;-60
2023/11/30 00:32:59;;;;;;;14.10;9.43;;;;;;;24.83;33.98;99174.25;4346675;33;34482;-60
2023/11/30 00:35:26;;;;;;;12.90;9.13;;;;;;;24.82;34.01;99169.87;4346802;33;33952;-60
2023/11/30 00:37:54;;;;;;;13.88;9.27;;;;;;;24.81;33.94;99170.97;4346516;33;33327;-60
2023/11/30 00:40:22;;;;;;;16.12;9.13;;;;;;;24.80;33.98;99172.84;4346847;33;33607;-60
2023/11/30 00:42:49;;;;;;;13.73;9.20;;;;;;;24.79;34.07;99168.47;4346378;33;34039;-60
2023/11/30 00:45:17;;;;;;;13.23;9.15;;;;;;;24.78;34.05;99177.72;4346736;33;33874;-60
2023/11/30 00:47:44;;;;;;;12.55;8.75;;;;;;;24.78;33.93;99176.91;4346538;33;34045;-60
2023/11/30 00:50:12;;;;;;;15.23;9.27;;;;;;;24.77;34.07;99169.81;4346280;33;34809;-60
2023/11/30 00:52:40;;;;;;;17.35;9.68;;;;;;;24.75;34.06;99166.50;4346653;33;33806;-60
2023/11/30 00:55:07;;;;;;;17.37;9.32;;;;;;;24.73;34.08;99166.75;4346456;33;34864;-60
2023/11/30 00:57:35;;;;;;;14.13;9.15;;;;;;;24.72;34.17;99159.66;4346393;33;34178;-60
2023/11/30 01:00:05;;;;;;;12.93;9.20;;;;;;;24.71;34.13;99162.59;4346299;33;35011;-60
2023/11/30 01:02:33;;;;;;;13.18;8.50;;;;;;;24.69;34.19;99166.41;4346331;33;33587;-60
2023/11/30 01:05:01;;;;;;;14.55;9.07;;;;;;;24.69;34.25;99162.87;4346440;33;33161;-60
2023/11/30 01:07:29;;;;;;;17.12;9.60;;;;;;;24.67;34.23;99163.13;4346261;33;34090;-61
2023/11/30 01:09:57;;;;;;;11.48;8.70;;;;;;;24.67;34.21;99159.56;4346173;33;34762;-61
2023/11/30 01:12:26;;;;;;;12.98;8.98;;;;;;;24.67;34.29;99162.31;4346077;33;34215;-61
2023/11/30 01:14:54;;;;;;;16.48;9.52;;;;;;;24.65;34.34;99159.81;4346202;33;34069;-61
2023/11/30 01:17:22;;;;;;;14.23;8.73;;;;;;;24.65;34.32;99162.53;4346181;33;34075;-60
2023/11/30 01:19:49;;;;;;;12.88;8.93;;;;;;;24.63;34.33;99158.41;4346276;33;33970;-61
2023/11/30 01:22:17;;;;;;;13.85;8.90;;;;;;;24.63;34.35;99166.59;4345905;33;34292;-60
2023/11/30 01:24:46;;;;;;;14.18;8.57;;;;;;;24.62;34.32;99162.19;4346136;33;33927;-60
2023/11/30 01:27:15;;;;;;;15.85;8.93;;;;;;;24.62;34.23;99167.66;4345810;33;34872;-60
2023/11/30 01:29:43;;;;;;;14.70;8.95;;;;;;;24.61;34.14;99158.66;4346600;33;33911;-60
2023/11/30 01:32:11;;;;;;;12.48;8.38;;;;;;;24.59;34.31;99149.09;4348024;33;34411;-60
2023/11/30 01:34:38;;;;;;;14.85;8.63;;;;;;;24.59;34.37;99146.34;4347781;33;33978;-61
2023/11/30 01:37:06;;;;;;;16.10;9.15;;;;;;;24.57;34.35;99143.84;4347956;33;34697;-61
2023/11/30 01:39:34;;;;;;;11.65;8.45;;;;;;;24.56;34.31;99136.75;4347954;33;33710;-61
2023/11/30 01:42:01;;;;;;;12.50;8.77;;;;;;;24.55;34.45;99131.56;4348108;33;33148;-61
2023/11/30 01:44:32;;;;;;;13.23;8.40;;;;;;;24.55;34.32;99134.28;4348183;33;34713;-60
2023/11/30 01:47:01;;;;;;;14.60;8.20;;;;;;;24.54;34.32;99133.47;4347998;33;33946;-58
2023/11/30 01:49:29;;;;;;;12.63;8.85;;;;;;;24.54;34.32;99133.47;4347702;33;34106;-60
2023/11/30 01:51:56;;;;;;;11.95;8.13;;;;;;;24.52;34.46;99132.03;4322472;33;32756;-60
2023/11/30 01:54:24;;;;;;;11.63;8.20;;;;;;;24.51;34.28;99139.41;4322147;33;34829;-60
2023/11/30 01:56:52;;;;;;;11.07;7.75;;;;;;;24.51;34.37;99138.59;4347924;33;34755;-60
2023/11/30 01:59:19;;;;;;;15.23;8.60;;;;;;;24.49;34.42;99144.31;4347845;33;33945;-60
2023/11/30 02:01:47;;;;;;;14.07;8.60;;;;;;;24.49;34.38;99138.84;4347943;33;33505;-60
2023/11/30 02:04:15;;;;;;;11.48;7.70;;;;;;;24.48;34.28;99137.19;4347675;33;34750;-60
2023/11/30 02:06:43;;;;;;;13.52;8.82;;;;;;;24.47;34.61;99142.88;4347811;33;34905;-61
2023/11/30 02:09:11;;;;;;;13.15;8.15;;;;;;;24.46;34.66;99144.78;4347667;33;33687;-60
2023/11/30 02:11:39;;;;;;;14.52;8.43;;;;;;;24.46;34.61;99138.50;4334392;33;33467;-60
2023/11/30 02:14:07;;;;;;;11.05;7.80;;;;;;;24.46;34.70;99133.88;4334597;33;33092;-61
2023/11/30 02:16:34;;;;;;;12.25;8.52;;;;;;;24.44;34.71;99130.59;4347568;33;34125;-60
2023/11/30 02:19:02;;;;;;;12.90;8.65;;;;;;;24.42;34.75;99122.63;4348016;33;33817;-61
2023/11/30 02:21:30;;;;;;;12.98;8.23;;;;;;;24.42;34.85;99128.09;4347775;33;33676;-59
2023/11/30 02:23:57;;;;;;;15.15;8.07;;;;;;;24.40;34.90;99121.25;4347380;33;33979;-61
2023/11/30 02:26:25;;;;;;;11.45;7.45;;;;;;;24.40;34.94;99132.16;4347674;33;34907;-61
2023/11/30 02:28:52;;;;;;;13.30;8.63;;;;;;;24.40;34.92;99132.16;4347670;33;33686;-61
2023/11/30 02:31:20;;;;;;;13.18;8.73;;;;;;;24.40;34.96;99121.25;4347236;33;34221;-60
2023/11/30 02:33:48;;;;;;;12.27;7.90;;;;;;;24.38;34.77;99116.03;4347634;32;34108;-61
2023/11/30 02:36:16;;;;;;;11.73;7.45;;;;;;;24.39;34.86;99114.16;4347546;33;33739;-60
2023/11/30 02:38:43;;;;;;;11.98;8.35;;;;;;;24.38;34.89;99112.47;4347382;33;34042;-60
2023/11/30 02:41:11;;;;;;;12.30;8.15;;;;;;;24.38;34.89;99109.75;4346675;33;33726;-60
2023/11/30 02:43:38;;;;;;;13.32;7.60;;;;;;;24.38;34.97;99117.94;4347416;33;33785;-60
2023/11/30 02:46:09;;;;;;;16.40;7.53;;;;;;;24.36;35.03;99109.16;4347383;33;34424;-60
2023/11/30 02:48:36;;;;;;;15.20;7.90;;;;;;;24.36;35.00;99111.88;4347560;33;34071;-60
2023/11/30 02:51:06;;;;;;;13.02;8.27;;;;;;;24.36;34.91;99109.16;4347551;33;33314;-60
2023/11/30 02:53:33;;;;;;;10.55;7.47;;;;;;;24.34;35.05;99114.00;4347352;33;34016;-60
2023/11/30 02:56:01;;;;;;;10.60;7.70;;;;;;;24.34;35.09;99117.59;4347462;33;33781;-61
2023/11/30 02:58:28;;;;;;;14.98;8.27;;;;;;;24.34;35.04;99114.00;4347371;33;33780;-61
2023/11/30 03:00:57;;;;;;;13.20;7.90;;;;;;;24.33;35.06;99105.00;4347260;33;34368;-61
2023/11/30 03:03:25;;;;;;;11.93;8.20;;;;;;;24.33;35.07;99096.84;4347537;33;34026;-60
2023/11/30 03:05:52;;;;;;;13.90;7.62;;;;;;;24.32;35.11;99091.63;4347375;33;34029;-60
2023/11/30 03:08:20;;;;;;;11.57;7.60;;;;;;;24.30;35.11;99086.44;4347259;33;34004;-60
2023/11/30 03:10:47;;;;;;;12.88;6.62;;;;;;;24.29;35.09;99087.50;4347472;33;34373;-60
2023/11/30 03:13:15;;;;;;;10.50;7.47;;;;;;;24.30;35.05;99077.44;4347609;33;34197;-60
2023/11/30 03:15:46;;;;;;;11.85;7.87;;;;;;;24.29;35.09;99071.13;4347197;33;34090;-60
2023/11/30 03:18:14;;;;;;;10.05;7.30;;;;;;;24.28;35.09;99066.78;4347354;33;33923;-60
2023/11/30 03:20:42;;;;;;;10.07;7.20;;;;;;;24.28;35.09;99074.13;4347237;33;34367;-60
2023/11/30 03:23:09;;;;;;;10.70;7.47;;;;;;;24.27;35.17;99067.03;4347288;33;34110;-60
2023/11/30 03:25:39;;;;;;;15.98;7.37;;;;;;;24.27;35.12;99067.03;4347214;33;33677;-60
2023/11/30 03:28:07;;;;;;;12.63;7.53;;;;;;;24.25;35.10;99072.75;4347062;33;33858;-60
2023/11/30 03:30:34;;;;;;;9.60;7.10;;;;;;;24.26;35.05;99079.84;4347526;33;33710;-60
2023/11/30 03:33:02;;;;;;;13.07;7.82;;;;;;;24.24;35.17;99084.69;4347169;33;34647;-60
2023/11/30 03:35:30;;;;;;;11.25;7.28;;;;;;;24.25;35.20;99077.34;4347050;33;34179;-60
2023/11/30 03:37:57;;;;;;;11.82;7.03;;;;;;;24.25;35.13;99080.06;4347104;33;33852;-61
2023/11/30 03:40:25;;;;;;;11.63;7.50;;;;;;;24.23;35.19;99083.06;4347230;33;33316;-61
2023/11/30 03:42:52;;;;;;;13.75;7.78;;;;;;;24.23;35.22;99080.31;4347003;33;34888;-59
2023/11/30 03:45:21;;;;;;;14.57;7.32;;;;;;;24.23;35.19;99063.16;4333929;33;34034;-61
2023/11/30 03:47:49;;;;;;;10.88;7.45;;;;;;;24.22;35.30;99053.31;4347416;33;34740;-60
2023/11/30 03:50:17;;;;;;;12.18;7.55;;;;;;;24.19;35.24;99044.56;4346837;33;33105;-60
2023/11/30 03:52:44;;;;;;;11.30;6.95;;;;;;;24.20;35.24;99039.94;4346532;33;34356;-60
2023/11/30 03:55:13;;;;;;;10.15;6.85;;;;;;;24.19;35.30;99030.09;4347275;33;34060;-61
2023/11/30 03:57:41;;;;;;;12.02;7.28;;;;;;;24.18;35.28;99017.56;4333869;33;33881;-61
2023/11/30 04:00:13;;;;;;;10.93;6.95;;;;;;;24.18;35.28;99021.09;4347158;33;33487;-60
2023/11/30 04:02:42;;;;;;;10.00;7.00;;;;;;;24.16;35.38;99017.00;4347099;33;34004;-61
2023/11/30 04:05:13;;;;;;;12.45;7.18;;;;;;;24.15;35.39;99013.44;4346743;33;33863;-59
2023/11/30 04:07:42;;;;;;;10.65;7.18;;;;;;;24.14;35.39;99017.22;4346971;33;34118;-58
2023/11/30 04:10:12;;;;;;;9.85;6.75;;;;;;;24.14;35.38;99006.31;4346943;33;33648;-60
2023/11/30 04:12:40;;;;;;;10.98;7.07;;;;;;;24.11;35.46;99006.84;4346919;33;33963;-60
2023/11/30 04:15:08;;;;;;;9.95;7.00;;;;;;;24.11;35.46;99001.38;4346969;33;34101;-61
2023/11/30 04:17:36;;;;;;;10.65;6.78;;;;;;;24.11;35.55;99006.03;4346926;33;33822;-60
2023/11/30 04:20:05;;;;;;;10.95;7.18;;;;;;;24.10;35.55;98999.72;4346895;33;33778;-60
2023/11/30 04:22:33;;;;;;;11.32;7.30;;;;;;;24.08;35.58;98996.44;4346936;33;33697;-60
2023/11/30 04:25:00;;;;;;;8.95;6.75;;;;;;;24.08;35.52;98987.44;4346625;33;33697;-61
2023/11/30 04:27:28;;;;;;;11.57;6.97;;;;;;;24.07;35.58;98983.88;4346836;33;34865;-60
2023/11/30 04:29:56;;;;;;;10.48;7.57;;;;;;;24.06;35.70;98981.38;4346795;33;33176;-61
2023/11/30 04:32:23;;;;;;;9.40;6.43;;;;;;;24.05;35.67;98974.28;4346734;33;34232;-60
2023/11/30 04:34:51;;;;;;;10.32;6.72;;;;;;;24.04;35.61;98959.03;4333402;33;34454;-61
2023/11/30 04:37:18;;;;;;;11.02;7.18;;;;;;;24.03;35.69;98968.28;4333438;33;33970;-60
2023/11/30 04:39:47;;;;;;;10.15;6.40;;;;;;;24.03;35.72;98965.56;4346526;33;33609;-59
2023/11/30 04:42:15;;;;;;;11.15;6.65;;;;;;;24.02;35.62;98958.47;4346655;33;34735;-61
2023/11/30 04:44:43;;;;;;;10.52;6.87;;;;;;;24.02;35.78;98959.28;4346676;33;34935;-60
2023/11/30 04:47:11;;;;;;;11.90;6.12;;;;;;;24.01;35.82;98954.88;4346348;33;34373;-61
2023/11/30 04:49:38;;;;;;;12.88;7.05;;;;;;;24.00;35.85;98957.87;4346292;33;33572;-60
2023/11/30 04:52:06;;;;;;;13.10;6.62;;;;;;;23.99;35.88;98959.78;4346101;33;33885;-60
2023/11/30 04:54:34;;;;;;;12.48;6.32;;;;;;;23.99;35.86;98962.50;4345997;33;34052;-60
2023/11/30 04:57:04;;;;;;;10.55;6.57;;;;;;;23.99;35.93;98959.78;4346348;33;34105;-60
2023/11/30 04:59:32;;;;;;;10.43;6.75;;;;;;;23.99;35.87;98957.06;4346353;33;34456;-60
2023/11/30 05:01:59;;;;;;;11.07;6.10;;;;;;;23.98;35.95;98947.22;4332769;33;34695;-60
2023/11/30 05:04:27;;;;;;;13.40;7.18;;;;;;;23.99;35.86;98937.16;4346343;33;33928;-60
2023/11/30 05:06:55;;;;;;;14.20;7.05;;;;;;;23.99;35.89;98934.44;4347805;33;34233;-60
2023/11/30 05:09:22;;;;;;;12.88;6.80;;;;;;;23.97;35.91;98931.97;4347952;33;33819;-60
2023/11/30 05:11:50;;;;;;;9.05;6.28;;;;;;;23.97;35.92;98925.66;4348174;33;34765;-60
2023/11/30 05:14:17;;;;;;;11.52;6.62;;;;;;;23.96;35.99;98935.75;4347704;33;33711;-61
2023/11/30 05:16:45;;;;;;;9.73;5.55;;;;;;;23.97;36.01;98945.59;4347640;33;34163;-60
2023/11/30 05:19:12;;;;;;;9.27;5.85;;;;;;;23.95;35.97;98952.34;4348198;33;34102;-60
2023/11/30 05:21:40;;;;;;;12.95;7.12;;;;;;;23.95;36.03;98944.19;4347935;33;34098;-63
2023/11/30 05:24:07;;;;;;;18.20;7.32;;;;;;;23.93;36.10;98942.53;4347865;33;33647;-63
2023/11/30 05:26:35;;;;;;;9.45;6.72;;;;;;;23.91;34.13;98939.22;4348033;33;34626;-63
2023/11/30 05:29:03;;;;;;;11.93;6.43;;;;;;;23.89;33.69;98951.47;4348089;33;33533;-63
2023/11/30 05:31:30;;;;;;;12.10;5.75;;;;;;;23.87;34.01;98948.16;4347955;33;33620;-63
2023/11/30 05:33:58;;;;;;;10.70;6.53;;;;;;;23.84;34.37;98945.94;4347881;32;34036;-62
2023/11/30 05:36:25;;;;;;;12.65;6.30;;;;;;;23.80;34.45;98942.88;4348009;33;33726;-62
2023/11/30 05:38:53;;;;;;;10.23;5.62;;;;;;;23.79;34.56;98937.69;4347751;33;33494;-62
2023/11/30 05:41:20;;;;;;;9.93;6.43;;;;;;;23.77;34.68;98926.22;4348267;33;34083;-62
2023/11/30 05:43:48;;;;;;;11.80;6.35;;;;;;;23.74;34.68;98915.84;4347841;33;34148;-63
2023/11/30 05:46:16;;;;;;;11.77;6.22;;;;;;;23.73;34.72;98922.31;4347946;33;33571;-62
2023/11/30 05:48:43;;;;;;;9.48;6.57;;;;;;;23.70;34.75;98920.13;4347800;33;34483;-62
2023/11/30 05:51:12;;;;;;;11.77;6.35;;;;;;;23.66;34.80;98923.34;4346613;33;34147;-63
2023/11/30 05:53:40;;;;;;;15.75;6.57;;;;;;;23.64;34.90;98927.37;4348044;33;34048;-63
2023/11/30 05:56:07;;;;;;;18.33;7.35;;;;;;;23.64;35.00;98930.94;4347532;33;34178;-66
2023/11/30 05:58:36;;;;;;;13.88;6.62;;;;;;;23.64;35.00;98911.87;4347461;33;33833;-66
2023/11/30 06:01:03;;;;;;;16.62;6.47;;;;;;;23.62;35.13;98905.81;4347703;33;34880;-66
2023/11/30 06:03:31;;;;;;;10.10;6.05;;;;;;;23.61;35.05;98908.78;4346571;33;34135;-66
2023/11/30 06:05:59;;;;;;;11.93;5.87;;;;;;;23.60;35.00;98915.31;4345739;33;34033;-65
2023/11/30 06:08:27;;;;;;;13.50;6.53;;;;;;;23.59;34.97;98925.34;4345946;33;34322;-66
2023/11/30 06:10:55;;;;;;;13.82;6.30;;;;;;;23.56;34.99;98920.44;4345692;33;34590;-66
2023/11/30 06:13:24;;;;;;;12.70;5.72;;;;;;;23.54;34.90;98905.41;4345744;33;33780;-65
2023/11/30 06:15:52;;;;;;;10.38;6.22;;;;;;;23.52;34.87;98908.38;4332629;33;33771;-65
2023/11/30 06:18:20;;;;;;;21.77;6.32;;;;;;;23.52;34.77;98913.00;4346756;33;34349;-65
2023/11/30 06:20:48;;;;;;;12.37;6.78;;;;;;;23.51;34.72;98906.75;4347752;33;34554;-66
2023/11/30 06:23:15;;;;;;;18.15;6.53;;;;;;;23.47;34.73;98894.69;4347607;33;33947;-66
2023/11/30 06:25:43;;;;;;;11.02;6.62;;;;;;;23.46;34.66;98895.78;4347406;33;34099;-66
2023/11/30 06:28:10;;;;;;;11.02;6.47;;;;;;;23.44;34.65;98892.44;4347283;33;33135;-66
2023/11/30 06:30:38;;;;;;;10.52;6.20;;;;;;;23.41;34.67;98896.50;4347693;33;33947;-66
2023/11/30 06:33:06;;;;;;;11.40;6.45;;;;;;;23.40;34.58;98896.75;4347785;33;33780;-66
2023/11/30 06:35:34;;;;;;;10.50;5.60;;;;;;;23.38;34.56;98901.63;4347425;33;33778;-65
2023/11/30 06:38:02;;;;;;;13.00;6.35;;;;;;;23.36;34.54;98891.00;4347563;33;33424;-66
2023/11/30 06:40:29;;;;;;;11.30;5.47;;;;;;;23.36;34.52;98903.75;4347481;33;34285;-66
2023/11/30 06:42:57;;;;;;;11.38;6.37;;;;;;;23.34;34.51;98897.75;4347591;33;33097;-65
2023/11/30 06:45:24;;;;;;;9.43;5.40;;;;;;;23.32;34.51;98922.50;4347360;33;34288;-65
2023/11/30 06:47:52;;;;;;;11.68;5.93;;;;;;;23.31;34.51;98920.00;4347405;33;33831;-66
2023/11/30 06:50:19;;;;;;;11.12;6.07;;;;;;;23.30;34.45;98931.97;4347376;33;33735;-66
2023/11/30 06:52:47;;;;;;;11.25;5.82;;;;;;;23.28;34.42;98928.69;4347456;33;34836;-65
2023/11/30 06:55:15;;;;;;;8.95;5.90;;;;;;;23.27;34.44;98924.28;4347511;33;33763;-65
2023/11/30 06:57:43;;;;;;;8.82;5.45;;;;;;;23.27;34.45;98927.00;4347376;33;34268;-66
2023/11/30 07:00:12;;;;;;;8.93;5.25;;;;;;;23.26;34.44;98928.91;4333992;33;34734;-66
2023/11/30 07:02:40;;;;;;;10.05;5.60;;;;;;;23.26;34.45;98928.91;4347729;33;34924;-66
2023/11/30 07:05:08;;;;;;;12.40;5.65;;;;;;;23.25;34.37;98927.25;4347255;33;34389;-66
2023/11/30 07:07:35;;;;;;;8.98;5.03;;;;;;;23.23;34.38;98913.09;4347442;33;33553;-66
2023/11/30 07:10:04;;;;;;;12.02;5.85;;;;;;;23.25;34.36;98915.56;4347301;33;34035;-65
2023/11/30 07:12:32;;;;;;;11.65;6.25;;;;;;;23.24;34.38;98925.63;4333816;33;34075;-65
2023/11/30 07:15:00;;;;;;;9.20;5.82;;;;;;;23.24;34.33;98932.97;4347434;33;33838;-65
2023/11/30 07:17:30;;;;;;;8.20;5.35;;;;;;;23.25;34.31;98943.59;4347341;33;34362;-65
2023/11/30 07:19:57;;;;;;;11.80;5.87;;;;;;;23.26;34.27;98936.25;4347359;33;34391;-66
2023/11/30 07:22:25;;;;;;;9.90;5.22;;;;;;;23.26;34.32;98933.53;4347584;33;34170;-66
2023/11/30 07:24:53;;;;;;;8.32;5.43;;;;;;;23.25;34.38;98937.31;4347221;33;34623;-66
2023/11/30 07:27:20;;;;;;;9.32;5.90;;;;;;;23.25;34.40;98940.87;4346483;33;33267;-66
2023/11/30 07:29:48;;;;;;;9.45;5.25;;;;;;;23.25;34.39;98932.72;4347275;33;34713;-66
2023/11/30 07:32:16;;;;;;;9.18;5.37;;;;;;;23.26;34.38;98933.53;4346859;33;34785;-66
2023/11/30 07:34:44;;;;;;;9.10;5.60;;;;;;;23.26;34.38;98928.09;4347441;33;34253;-65
2023/11/30 07:37:20;;;;;;;8.55;4.95;;;;;;;23.24;34.42;98922.06;4347194;33;34278;-66
2023/11/30 07:39:48;;;;;;;8.02;5.28;;;;;;;23.24;34.45;98925.63;4347285;33;33863;-66
2023/11/30 07:42:16;;;;;;;8.98;5.72;;;;;;;23.26;34.41;98928.09;4347193;33;34706;-65
2023/11/30 07:44:47;;;;;;;10.10;5.87;;;;;;;23.26;34.41;98930.81;4347247;33;33853;-62
2023/11/30 07:47:15;;;;;;;8.05;5.15;;;;;;;23.26;34.49;98926.19;4346862;33;34192;-64
2023/11/30 07:49:42;;;;;;;9.27;5.57;;;;;;;23.26;34.39;98923.47;4347072;33;34110;-62
2023/11/30 07:52:09;;;;;;;10.07;5.10;;;;;;;23.26;34.38;98922.62;4347112;33;33825;-62
2023/11/30 07:54:37;;;;;;;10.00;4.87;;;;;;;23.26;34.48;98917.19;4347260;33;34621;-62
2023/11/30 07:57:05;;;;;;;8.07;5.10;;;;;;;23.26;34.48;98917.19;4347099;33;34212;-63
2023/11/30 07:59:32;;;;;;;9.13;5.35;;;;;;;23.26;34.50;98914.47;4346924;33;34678;-63
2023/11/30 08:02:00;;;;;;;7.72;5.05;;;;;;;23.26;34.48;98895.44;4345723;33;33750;-66
2023/11/30 08:04:28;;;;;;;8.10;4.97;;;;;;;23.26;34.42;98900.88;4347174;33;34060;-66
2023/11/30 08:06:56;;;;;;;9.07;5.20;;;;;;;23.25;34.35;98897.31;4346903;33;33102;-65
2023/11/30 08:09:23;;;;;;;10.27;5.32;;;;;;;23.25;34.40;98889.16;4333676;33;33600;-65
2023/11/30 08:11:51;;;;;;;7.47;4.80;;;;;;;23.26;34.42;98889.97;4346961;33;34196;-65
2023/11/30 08:14:19;;;;;;;9.05;5.50;;;;;;;23.25;34.42;98896.50;4333887;33;34541;-64
2023/11/30 08:16:46;;;;;;;11.00;6.07;;;;;;;23.24;34.35;98887.50;4346914;33;34654;-65
2023/11/30 08:19:14;;;;;;;9.90;6.05;;;;;;;23.23;34.33;98883.16;4346865;33;34107;-64
2023/11/30 08:21:43;;;;;;;8.05;5.60;;;;;;;23.23;34.21;98871.44;4346956;33;33464;-61
2023/11/30 08:24:11;;;;;;;9.57;5.35;;;;;;;23.23;34.11;98874.16;4346984;33;34295;-63
2023/11/30 08:26:39;;;;;;;7.65;5.32;;;;;;;23.22;34.11;98880.66;4346863;33;33788;-62
2023/11/30 08:29:06;;;;;;;8.25;4.97;;;;;;;23.22;34.08;98873.31;4346956;33;33556;-62
2023/11/30 08:31:36;;;;;;;10.55;5.72;;;;;;;23.21;34.10;98863.50;4346769;33;34707;-62
2023/11/30 08:34:04;;;;;;;;;;;;;;;23.22;34.02;98869.78;4347085;33;34409;-62
2023/11/30 08:36:31;;;;;;;9.68;5.60;;;;;;;23.31;33.85;98860.94;4346699;33;33171;-63
2023/11/30 08:38:59;;;;;;;13.05;6.07;;;;;;;23.24;33.98;98868.47;4346569;33;33328;-64
2023/11/30 08:41:26;;;;;;;18.70;14.00;;;;;;;23.21;33.91;98855.34;4333267;33;33901;-64
2023/11/30 08:43:54;;;;;;;17.92;13.55;;;;;;;23.08;28.12;98851.06;4346379;33;34645;-61
2023/11/30 08:46:21;;;;;;;17.45;11.12;;;;;;;22.94;28.29;98863.31;4346479;33;33228;-62
2023/11/30 08:48:49;;;;;;;14.05;9.23;;;;;;;22.90;29.58;98859.47;4346325;33;34222;-62
2023/11/30 08:51:26;;;;;;;15.48;10.18;;;;;;;22.92;31.35;98849.16;4346383;33;34070;-60
2023/11/30 08:53:54;;;;;;;13.93;9.20;;;;;;;22.95;31.43;98856.84;4346497;33;33983;-61
2023/11/30 08:56:21;;;;;;;14.32;8.25;;;;;;;23.00;31.45;98850.66;4346452;33;34293;-64
2023/11/30 08:58:50;;;;;;;13.07;8.23;;;;;;;23.04;31.42;98858.06;4346209;33;34177;-63
2023/11/30 09:01:18;;;;;;;11.50;8.00;;;;;;;23.13;31.51;98855.78;4346346;33;34056;-62
2023/11/30 09:03:45;;;;;;;11.50;7.65;;;;;;;23.22;31.59;98853.44;4346385;33;34857;-61
2023/11/30 09:06:13;;;;;;;9.80;6.68;;;;;;;23.33;31.66;98855.28;4346247;33;33154;-62
2023/11/30 09:08:41;;;;;;;10.63;7.20;;;;;;;23.46;31.74;98865.81;4346347;33;33644;-62
2023/11/30 09:11:09;;;;;;;9.85;7.25;;;;;;;23.58;31.77;98863.81;4346237;33;34085;-63
2023/11/30 09:13:37;;;;;;;10.23;7.22;;;;;;;23.71;31.78;98867.28;4346062;33;33824;-63
2023/11/30 09:16:05;;;;;;;9.43;6.57;;;;;;;23.80;31.81;98858.44;4346183;33;33773;-62
2023/11/30 09:18:33;;;;;;;11.05;6.45;;;;;;;23.89;31.80;98858.84;4343901;32;34759;-61
2023/11/30 09:21:00;;;;;;;9.20;6.20;;;;;;;23.95;31.83;98857.81;4331694;33;33979;-62
2023/11/30 09:23:29;;;;;;;9.85;6.12;;;;;;;24.00;31.85;98851.59;4331315;33;34756;-62
2023/11/30 09:25:57;;;;;;;9.35;5.87;;;;;;;24.06;31.86;98846.00;4331316;33;33882;-61
2023/11/30 09:28:24;;;;;;;10.05;6.10;;;;;;;24.13;31.87;98840.31;4331324;33;34902;-62
2023/11/30 09:30:52;;;;;;;8.88;6.03;;;;;;;24.21;31.88;98842.63;4331253;33;34811;-62
2023/11/30 09:33:19;;;;;;;8.55;5.70;;;;;;;24.31;31.87;98842.72;4338670;33;34544;-62
2023/11/30 09:35:47;;;;;;;8.70;5.50;;;;;;;24.40;31.86;98830.31;4345970;33;33405;-62
2023/11/30 09:38:15;;;;;;;9.32;5.60;;;;;;;24.48;31.87;98837.22;4350647;32;34815;-63
2023/11/30 09:40:42;;;;;;;8.32;6.07;;;;;;;24.57;31.88;98837.56;4358388;32;34195;-61
2023/11/30 09:43:10;;;;;;;8.27;4.90;;;;;;;24.64;31.88;98828.09;4347159;32;33552;-63
2023/11/30 09:45:38;;;;;;;8.43;5.15;;;;;;;24.75;31.84;98826.28;4347059;32;33613;-59
2023/11/30 09:48:06;;;;;;;9.23;5.40;;;;;;;24.85;31.83;98828.28;4338635;33;34260;-60
2023/11/30 09:50:33;;;;;;;8.55;5.55;;;;;;;24.94;31.79;98822.09;4345738;33;34317;-61
2023/11/30 09:53:02;;;;;;;9.07;5.37;;;;;;;25.04;31.75;98815.91;4347812;33;33885;-63
2023/11/30 09:55:30;;;;;;;7.70;5.18;;;;;;;25.14;31.71;98807.84;4346554;33;33462;-63
2023/11/30 09:57:58;;;;;;;8.40;5.45;;;;;;;25.24;31.65;98811.72;4347605;33;33982;-63
2023/11/30 10:00:26;;;;;;;7.45;5.10;;;;;;;25.32;31.62;98806.59;4347399;33;33905;-62
2023/11/30 10:02:54;;;;;;;7.65;5.25;;;;;;;25.42;31.56;98794.91;4347134;33;34966;-63
2023/11/30 10:05:21;;;;;;;7.05;4.95;;;;;;;25.50;31.52;98791.66;4347318;33;33910;-61
2023/11/30 10:07:49;;;;;;;7.28;4.93;;;;;;;25.58;31.50;98793.09;4345184;33;34471;-61
2023/11/30 10:10:17;;;;;;;7.30;4.90;;;;;;;25.65;31.45;98780.84;4332940;33;33708;-61
2023/11/30 10:12:44;;;;;;;8.10;4.95;;;;;;;25.74;31.43;98778.44;4333038;33;34095;-61
2023/11/30 10:15:12;;;;;;;7.68;5.00;;;;;;;25.81;31.39;98780.94;4333027;33;33144;-64
2023/11/30 10:17:41;;;;;;;8.23;4.97;;;;;;;25.87;31.36;98777.12;4332864;33;34014;-61
2023/11/30 10:20:11;;;;;;;7.68;5.25;;;;;;;25.95;31.31;98782.09;4332900;33;34723;-60
2023/11/30 10:22:40;;;;;;;8.13;4.75;;;;;;;26.01;31.28;98764.59;4332982;33;34733;-60
2023/11/30 10:25:08;;;;;;;7.93;4.62;;;;;;;26.10;31.23;98760.25;4345317;33;33659;-60
2023/11/30 10:27:36;;;;;;;7.47;4.62;;;;;;;26.16;31.20;98755.62;4347581;33;34487;-60
2023/11/30 10:30:04;;;;;;;7.12;4.78;;;;;;;26.22;31.18;98753.75;4347734;33;34779;-60
2023/11/30 10:32:32;;;;;;;8.10;4.50;;;;;;;26.27;31.17;98751.03;4347417;33;35129;-60
2023/11/30 10:35:03;;;;;;;7.60;4.70;;;;;;;26.33;31.16;98739.00;4347732;33;33552;-60
2023/11/30 10:37:32;;;;;;;7.28;4.72;;;;;;;26.39;31.13;98737.88;4346267;33;33727;-59
2023/11/30 10:40:03;;;;;;;5.93;4.25;;;;;;;26.45;31.09;98728.66;4347578;33;34936;-61
2023/11/30 10:42:34;;;;;;;6.47;4.43;;;;;;;26.49;31.06;98717.97;4334484;33;34115;-61
2023/11/30 10:45:03;;;;;;;7.37;4.72;;;;;;;26.50;31.07;98717.72;4346391;33;33649;-60
2023/11/30 10:47:30;;;;;;;6.50;4.40;;;;;;;26.53;31.07;98719.87;4347400;33;34031;-60
2023/11/30 10:49:59;;;;;;;8.43;4.57;;;;;;;26.57;31.06;98709.22;4333985;33;35361;-61
2023/11/30 10:52:28;;;;;;;;;;;;;;;26.61;31.07;98696.63;4347542;33;34997;-61
2023/11/30 10:55:09;;;;;;;6.97;4.07;;;;;;;26.76;30.86;98701.28;4338800;33;33735;-61
2023/11/30 10:57:43;;;;;;;7.25;4.57;;;;;;;26.71;30.89;98694.69;4332153;33;34009;-61
2023/11/30 11:00:15;;;;;;;7.30;5.00;;;;;;;26.73;30.94;98694.44;4332610;33;34096;-61
2023/11/30 11:02:47;;;;;;;8.07;4.32;;;;;;;26.74;30.96;98690.63;4332310;33;34630;-62
2023/11/30 11:05:18;;;;;;;6.50;4.07;;;;;;;26.76;30.97;98682.13;4341677;33;33227;-62
2023/11/30 11:07:47;;;;;;;5.85;3.80;;;;;;;26.76;30.98;98674.72;4347450;33;34079;-66
2023/11/30 11:10:26;;;;;;;8.32;4.60;;;;;;;26.76;30.97;98674.72;4347276;33;34870;-63
2023/11/30 11:12:58;;;;;;;8.43;4.30;;;;;;;26.77;30.97;98675.56;4347678;33;33805;-63
2023/11/30 11:15:29;;;;;;;5.93;3.83;;;;;;;26.74;31.01;98679.66;4347073;33;34175;-62
2023/11/30 11:18:05;;;;;;;6.03;4.32;;;;;;;26.71;31.03;98674.72;4347293;33;33778;-63
2023/11/30 11:20:35;;;;;;;6.18;4.03;;;;;;;26.68;31.06;98670.66;4347263;33;34149;-62
2023/11/30 11:23:02;;;;;;;7.47;4.12;;;;;;;26.66;31.09;98666.53;4347296;33;34319;-63
2023/11/30 11:25:40;;;;;;;9.27;4.40;;;;;;;26.63;31.09;98664.38;4347345;33;34424;-62
2023/11/30 11:28:08;;;;;;;7.25;4.37;;;;;;;26.61;31.13;98666.53;4347015;33;34939;-63
2023/11/30 11:30:40;;;;;;;7.57;4.15;;;;;;;26.55;31.18;98659.44;4347345;33;33946;-64
2023/11/30 11:33:08;;;;;;;6.18;3.97;;;;;;;26.51;31.25;98658.34;4347159;33;34860;-65